Time;durP1;ratioP1;P1;durP2;ratioP2;P2;SDS_P1;SDS_P2;PMS_P1;PMS_P2;Temp;Humidity;BMP_temperature;BMP_pressure;BME280_temperature;BME280_humidity;BME280_pressure;Samples;Min_cycle;Max_cycle;Signal;HPM_P1;HPM_P2
2022/11/30 00:00:20;;;;;;;;;;;8.90;99.90;;;;;;7341680;19;108828;-69
2022/11/30 00:02:48;;;;;;;;;;;8.90;99.90;;;;;;7346277;19;109650;-69
2022/11/30 00:05:15;;;;;;;;;;;8.90;99.90;;;;;;7340025;19;108352;-69
2022/11/30 00:07:42;;;;;;;;;;;8.90;99.90;;;;;;7340753;19;110437;-69
2022/11/30 00:10:09;;;;;;;;;;;8.90;99.90;;;;;;7342511;19;111169;-69
2022/11/30 00:12:36;;;;;;;;;;;8.90;99.90;;;;;;7342419;19;108611;-69
2022/11/30 00:15:03;;;;;;;;;;;8.90;99.90;;;;;;7341735;19;109114;-69
2022/11/30 00:17:30;;;;;;;;;;;8.90;99.90;;;;;;7339773;19;109483;-69
2022/11/30 00:19:57;;;;;;;;;;;8.90;99.90;;;;;;7340807;19;108658;-69
2022/11/30 00:22:23;;;;;;;;;;;8.90;99.90;;;;;;7339556;19;109430;-69
2022/11/30 00:24:50;;;;;;;;;;;8.90;99.90;;;;;;7347317;19;110351;-69
2022/11/30 00:27:17;;;;;;;;;;;8.90;99.90;;;;;;7340076;19;108838;-69
2022/11/30 00:29:44;;;;;;;;;;;8.90;99.90;;;;;;7337088;19;110361;-69
2022/11/30 00:32:11;;;;;;;;;;;8.90;99.90;;;;;;7339760;19;108809;-69
2022/11/30 00:34:38;;;;;;;;;;;8.90;99.90;;;;;;7341162;19;109876;-69
2022/11/30 00:37:08;;;;;;;;;;;8.90;99.90;;;;;;7339891;19;111178;-70
2022/11/30 00:39:35;;;;;;;;;;;8.80;99.90;;;;;;7339543;19;108975;-69
2022/11/30 00:42:01;;;;;;;;;;;8.90;99.90;;;;;;7339958;19;111780;-69
2022/11/30 00:44:28;;;;;;;;;;;8.80;99.90;;;;;;7338217;19;110137;-69
2022/11/30 00:46:55;;;;;;;;;;;8.70;99.90;;;;;;7346547;19;108973;-69
2022/11/30 00:49:22;;;;;;;;;;;8.70;99.90;;;;;;7339155;19;110105;-69
2022/11/30 00:51:49;;;;;;;;;;;8.70;99.90;;;;;;7340347;19;108605;-69
2022/11/30 00:54:16;;;;;;;;;;;8.70;99.90;;;;;;7339852;19;109581;-69
2022/11/30 00:56:43;;;;;;;;;;;8.80;99.90;;;;;;7338451;19;110777;-69
2022/11/30 00:59:10;;;;;;;;;;;8.80;99.90;;;;;;7339366;19;108476;-69
2022/11/30 01:01:36;;;;;;;;;;;8.70;99.90;;;;;;7339652;19;109321;-69
2022/11/30 01:04:04;;;;;;;;;;;8.70;99.90;;;;;;7338729;19;110357;-69
2022/11/30 01:06:31;;;;;;;;;;;8.70;99.90;;;;;;7347358;19;108852;-69
2022/11/30 01:08:58;;;;;;;;;;;8.60;99.90;;;;;;7339783;19;109946;-69
2022/11/30 01:11:27;;;;;;;;;;;8.60;99.90;;;;;;7338467;19;110546;-69
2022/11/30 01:13:55;;;;;;;;;;;8.50;99.90;;;;;;7339882;19;108926;-69
2022/11/30 01:16:26;;;;;;;;;;;8.60;99.90;;;;;;7337648;19;110293;-69
2022/11/30 01:18:53;;;;;;;;;;;8.50;99.90;;;;;;7339918;19;109128;-69
2022/11/30 01:21:22;;;;;;;;;;;8.60;99.90;;;;;;7338582;19;109210;-69
2022/11/30 01:23:49;;;;;;;;;;;8.60;99.90;;;;;;7337283;19;110121;-69
2022/11/30 01:26:17;;;;;;;;;;;8.60;99.90;;;;;;7339597;19;108458;-69
2022/11/30 01:28:48;;;;;;;;;;;8.60;99.90;;;;;;7343333;19;110926;-69
2022/11/30 01:31:15;;;;;;;;;;;8.60;99.90;;;;;;7336452;19;111301;-69
2022/11/30 01:33:42;;;;;;;;;;;8.60;99.90;;;;;;7337900;19;112539;-69
2022/11/30 01:36:10;;;;;;;;;;;8.60;99.90;;;;;;7337266;19;109215;-70
2022/11/30 01:38:38;;;;;;;;;;;8.50;99.90;;;;;;7338518;19;109050;-69
2022/11/30 01:41:07;;;;;;;;;;;8.50;99.90;;;;;;7338090;19;109018;-69
2022/11/30 01:43:42;;;;;;;;;;;8.50;99.90;;;;;;7338871;19;110199;-69
2022/11/30 01:46:28;;;;;;;;;;;8.50;99.90;;;;;;7338619;19;108715;-69
2022/11/30 01:49:08;;;;;;;;;;;8.50;99.90;;;;;;7338230;19;109464;-69
2022/11/30 01:51:41;;;;;;;;;;;8.50;99.90;;;;;;7342041;19;109728;-69
2022/11/30 01:54:09;;;;;;;;;;;8.50;99.90;;;;;;7339303;19;108985;-69
2022/11/30 01:56:39;;;;;;;;;;;8.50;99.90;;;;;;7338366;19;110452;-69
2022/11/30 01:59:06;;;;;;;;;;;8.50;99.90;;;;;;7338680;19;109138;-70
2022/11/30 02:01:33;;;;;;;;;;;8.50;99.90;;;;;;7337667;19;109238;-69
2022/11/30 02:04:18;;;;;;;;;;;8.50;99.90;;;;;;7334916;19;109712;-69
2022/11/30 02:06:46;;;;;;;;;;;8.50;99.90;;;;;;7340289;19;109457;-69
2022/11/30 02:09:18;;;;;;;;;;;8.50;99.90;;;;;;7335371;19;119399;-69
2022/11/30 02:11:45;;;;;;;;;;;8.50;99.90;;;;;;7338290;19;110160;-69
2022/11/30 02:14:30;;;;;;;;;;;8.50;99.90;;;;;;7342371;19;108727;-69
2022/11/30 02:17:15;;;;;;;;;;;8.50;99.90;;;;;;7336707;19;109106;-71
2022/11/30 02:19:57;;;;;;;;;;;8.50;99.90;;;;;;7337933;19;108845;-69
2022/11/30 02:22:24;;;;;;;;;;;8.50;99.90;;;;;;7339067;19;109463;-69
2022/11/30 02:25:09;;;;;;;;;;;8.50;99.90;;;;;;7337366;19;109664;-69
2022/11/30 02:27:36;;;;;;;;;;;8.50;99.90;;;;;;7337520;19;109046;-69
2022/11/30 02:30:02;;;;;;;;;;;8.50;99.90;;;;;;7334528;19;109685;-69
2022/11/30 02:32:35;;;;;;;;;;;8.50;99.90;;;;;;7333951;19;110299;-69
2022/11/30 02:35:03;;;;;;;;;;;8.50;99.90;;;;;;7336479;19;109703;-69
2022/11/30 02:37:30;;;;;;;;;;;8.50;99.90;;;;;;7340315;19;108952;-69
2022/11/30 02:39:57;;;;;;;;;;;8.50;99.90;;;;;;7336046;19;108626;-70
2022/11/30 02:42:24;;;;;;;;;;;8.50;99.90;;;;;;7334303;19;108803;-69
2022/11/30 02:44:52;;;;;;;;;;;8.50;99.90;;;;;;7334346;19;110355;-69
2022/11/30 02:47:22;;;;;;;;;;;8.50;99.90;;;;;;7336556;19;109226;-69
2022/11/30 02:49:53;;;;;;;;;;;8.50;99.90;;;;;;7335839;19;109817;-69
2022/11/30 02:52:22;;;;;;;;;;;8.50;99.90;;;;;;7336487;19;109386;-69
2022/11/30 02:54:49;;;;;;;;;;;8.50;99.90;;;;;;7342574;19;109394;-69
2022/11/30 02:57:16;;;;;;;;;;;8.50;99.90;;;;;;7342312;19;109580;-69
2022/11/30 02:59:43;;;;;;;;;;;8.50;99.90;;;;;;7348417;19;110969;-70
2022/11/30 03:02:10;;;;;;;;;;;8.50;99.90;;;;;;7340654;19;108981;-69
2022/11/30 03:04:37;;;;;;;;;;;8.50;99.90;;;;;;7345791;19;110521;-69
2022/11/30 03:07:04;;;;;;;;;;;8.50;99.90;;;;;;7345107;19;109683;-69
2022/11/30 03:09:31;;;;;;;;;;;8.40;99.90;;;;;;7341543;19;109105;-69
2022/11/30 03:11:58;;;;;;;;;;;8.40;99.90;;;;;;7340076;19;109589;-69
2022/11/30 03:14:24;;;;;;;;;;;8.40;99.90;;;;;;7341468;19;108343;-69
2022/11/30 03:16:51;;;;;;;;;;;8.40;99.90;;;;;;7341612;19;108751;-69
2022/11/30 03:19:18;;;;;;;;;;;8.40;99.90;;;;;;7346924;19;109827;-70
2022/11/30 03:21:45;;;;;;;;;;;8.40;99.90;;;;;;7338714;19;108779;-71
2022/11/30 03:24:12;;;;;;;;;;;8.40;99.90;;;;;;7337567;19;109039;-69
2022/11/30 03:26:39;;;;;;;;;;;8.50;99.90;;;;;;7342449;19;108751;-70
2022/11/30 03:29:06;;;;;;;;;;;8.40;99.90;;;;;;7340870;19;109301;-70
2022/11/30 03:31:33;;;;;;;;;;;8.40;99.90;;;;;;7342008;19;109975;-76
2022/11/30 03:34:00;;;;;;;;;;;8.40;99.90;;;;;;7341043;19;108935;-73
2022/11/30 03:36:27;;;;;;;;;;;8.40;99.90;;;;;;7342083;19;109498;-74
2022/11/30 03:38:54;;;;;;;;;;;8.40;99.90;;;;;;7341133;19;111856;-72
2022/11/30 03:41:21;;;;;;;;;;;8.40;99.90;;;;;;7346087;19;108630;-76
2022/11/30 03:43:48;;;;;;;;;;;8.50;99.90;;;;;;7342165;19;113756;-74
2022/11/30 03:46:15;;;;;;;;;;;8.40;99.90;;;;;;7342753;19;108751;-71
2022/11/30 03:48:42;;;;;;;;;;;8.40;99.90;;;;;;7342255;19;109129;-74
2022/11/30 03:51:09;;;;;;;;;;;8.40;99.90;;;;;;7341270;19;109688;-77
2022/11/30 03:53:36;;;;;;;;;;;8.40;99.90;;;;;;7341429;19;108785;-69
2022/11/30 03:56:04;;;;;;;;;;;8.40;99.90;;;;;;7340839;19;111818;-69
2022/11/30 03:58:31;;;;;;;;;;;8.40;99.90;;;;;;7342055;19;111385;-69
2022/11/30 04:00:58;;;;;;;;;;;8.40;99.90;;;;;;7338532;19;108473;-68
2022/11/30 04:03:25;;;;;;;;;;;8.40;99.90;;;;;;7344233;19;109113;-68
2022/11/30 04:05:52;;;;;;;;;;;8.40;99.90;;;;;;7338353;19;109228;-68
2022/11/30 04:08:19;;;;;;;;;;;8.40;99.90;;;;;;7340813;19;109259;-68
2022/11/30 04:10:46;;;;;;;;;;;8.40;99.90;;;;;;7339105;19;110197;-67
2022/11/30 04:13:13;;;;;;;;;;;8.40;99.90;;;;;;7336805;19;108941;-68
2022/11/30 04:15:40;;;;;;;;;;;8.40;99.90;;;;;;7342393;19;109764;-68
2022/11/30 04:18:07;;;;;;;;;;;8.40;99.90;;;;;;7340952;19;110011;-68
2022/11/30 04:20:34;;;;;;;;;;;8.40;99.90;;;;;;7340975;19;108812;-68
2022/11/30 04:23:06;;;;;;;;;;;8.40;99.90;;;;;;7339865;19;109562;-68
2022/11/30 04:25:33;;;;;;;;;;;8.40;99.90;;;;;;7346622;19;110392;-67
2022/11/30 04:27:59;;;;;;;;;;;8.40;99.90;;;;;;7339443;19;108594;-67
2022/11/30 04:30:26;;;;;;;;;;;8.40;99.90;;;;;;7339066;19;109235;-67
2022/11/30 04:32:53;;;;;;;;;;;8.50;99.90;;;;;;7342820;19;108742;-68
2022/11/30 04:35:20;;;;;;;;;;;8.40;99.90;;;;;;7340932;19;108989;-68
2022/11/30 04:37:47;;;;;;;;;;;8.40;99.90;;;;;;7341925;19;110471;-68
2022/11/30 04:40:14;;;;;;;;;;;8.40;99.90;;;;;;7341745;19;109026;-67
2022/11/30 04:42:40;;;;;;;;;;;8.40;99.90;;;;;;7340847;19;110383;-68
2022/11/30 04:45:07;;;;;;;;;;;8.40;99.90;;;;;;7339037;19;109328;-67
2022/11/30 04:47:34;;;;;;;;;;;8.40;99.90;;;;;;7346956;19;109471;-67
2022/11/30 04:50:02;;;;;;;;;;;8.40;99.90;;;;;;7339726;19;111526;-68
2022/11/30 04:52:28;;;;;;;;;;;8.50;99.90;;;;;;7339960;19;108650;-68
2022/11/30 04:54:56;;;;;;;;;;;8.40;99.90;;;;;;7342649;19;108427;-67
2022/11/30 04:57:23;;;;;;;;;;;8.40;99.90;;;;;;7340250;19;109671;-68
2022/11/30 04:59:49;;;;;;;;;;;8.50;99.90;;;;;;7338644;19;108567;-69
2022/11/30 05:02:16;;;;;;;;;;;8.50;99.90;;;;;;7339627;19;108958;-67
2022/11/30 05:04:43;;;;;;;;;;;8.50;99.90;;;;;;7340034;19;111577;-68
2022/11/30 05:07:11;;;;;;;;;;;8.50;99.90;;;;;;7341018;19;108712;-68
2022/11/30 05:09:37;;;;;;;;;;;8.40;99.90;;;;;;7342814;19;109339;-68
2022/11/30 05:12:04;;;;;;;;;;;8.50;99.90;;;;;;7339167;19;108582;-67
2022/11/30 05:14:31;;;;;;;;;;;8.50;99.90;;;;;;7338277;19;109583;-68
2022/11/30 05:16:58;;;;;;;;;;;8.40;99.90;;;;;;7339217;19;109526;-68
2022/11/30 05:19:25;;;;;;;;;;;8.50;99.90;;;;;;7338713;19;112591;-67
2022/11/30 05:21:52;;;;;;;;;;;8.50;99.90;;;;;;7339235;19;110123;-68
2022/11/30 05:24:19;;;;;;;;;;;8.40;99.90;;;;;;7338950;19;109497;-67
2022/11/30 05:26:46;;;;;;;;;;;8.50;99.90;;;;;;7341189;19;108429;-68
2022/11/30 05:29:12;;;;;;;;;;;8.40;99.90;;;;;;7342933;19;109538;-68
2022/11/30 05:31:39;;;;;;;;;;;8.50;99.90;;;;;;7339975;19;109510;-68
2022/11/30 05:34:06;;;;;;;;;;;8.40;99.90;;;;;;7337287;19;109424;-68
2022/11/30 05:36:33;;;;;;;;;;;8.50;99.90;;;;;;7340841;19;110528;-68
2022/11/30 05:39:00;;;;;;;;;;;8.50;99.90;;;;;;7340767;19;109050;-68
2022/11/30 05:41:27;;;;;;;;;;;8.50;99.90;;;;;;7341830;19;109179;-68
2022/11/30 05:43:54;;;;;;;;;;;8.40;99.90;;;;;;7340820;19;110335;-67
2022/11/30 05:46:21;;;;;;;;;;;8.40;99.90;;;;;;7338159;19;109499;-67
2022/11/30 05:48:48;;;;;;;;;;;8.40;99.90;;;;;;7339848;19;108590;-67
2022/11/30 05:51:16;;;;;;;;;;;8.50;99.90;;;;;;7344492;19;110356;-67
2022/11/30 05:53:44;;;;;;;;;;;8.40;99.90;;;;;;7338127;19;109748;-67
2022/11/30 05:56:15;;;;;;;;;;;8.40;99.90;;;;;;7340442;19;109435;-68
2022/11/30 05:58:42;;;;;;;;;;;8.40;99.90;;;;;;7339348;19;108535;-68
2022/11/30 06:01:19;;;;;;;;;;;8.40;99.90;;;;;;7337338;19;109219;-68
2022/11/30 06:03:46;;;;;;;;;;;8.40;99.90;;;;;;7338067;19;110372;-67
2022/11/30 06:06:13;;;;;;;;;;;8.40;99.90;;;;;;7337561;19;109608;-68
2022/11/30 06:08:40;;;;;;;;;;;8.40;99.90;;;;;;7340371;19;111583;-69
2022/11/30 06:11:08;;;;;;;;;;;8.50;99.90;;;;;;7336080;19;109216;-67
2022/11/30 06:13:35;;;;;;;;;;;8.50;99.90;;;;;;7345812;19;108353;-71
2022/11/30 06:16:02;;;;;;;;;;;8.50;99.90;;;;;;7335817;19;110335;-67
2022/11/30 06:18:29;;;;;;;;;;;8.40;99.90;;;;;;7338219;19;109207;-67
2022/11/30 06:21:00;;;;;;;;;;;8.50;99.90;;;;;;7337711;19;109443;-68
2022/11/30 06:23:27;;;;;;;;;;;8.50;99.90;;;;;;7337799;19;110350;-68
2022/11/30 06:25:54;;;;;;;;;;;8.50;99.90;;;;;;7335051;19;108416;-67
2022/11/30 06:28:21;;;;;;;;;;;8.50;99.90;;;;;;7337302;19;108742;-67
2022/11/30 06:30:49;;;;;;;;;;;8.50;99.90;;;;;;7335610;19;109104;-67
2022/11/30 06:33:15;;;;;;;;;;;8.50;99.90;;;;;;7335985;19;108321;-67
2022/11/30 06:35:45;;;;;;;;;;;8.50;99.90;;;;;;7343826;19;109299;-68
2022/11/30 06:38:12;;;;;;;;;;;8.50;99.90;;;;;;7336337;19;108784;-67
2022/11/30 06:40:39;;;;;;;;;;;8.50;99.90;;;;;;7337940;19;109108;-67
2022/11/30 06:43:06;;;;;;;;;;;8.50;99.90;;;;;;7335551;19;109240;-68
2022/11/30 06:45:33;;;;;;;;;;;8.50;99.90;;;;;;7337055;19;108888;-67
2022/11/30 06:48:00;;;;;;;;;;;8.50;99.90;;;;;;7337121;19;109726;-68
2022/11/30 06:50:27;;;;;;;;;;;8.40;99.90;;;;;;7334825;19;109968;-67
2022/11/30 06:52:55;;;;;;;;;;;8.40;99.90;;;;;;7335391;19;109145;-68
2022/11/30 06:55:22;;;;;;;;;;;8.50;99.90;;;;;;7331388;19;113531;-67
2022/11/30 06:57:49;;;;;;;;;;;8.40;99.90;;;;;;7340520;19;109902;-67
2022/11/30 07:00:16;;;;;;;;;;;8.40;99.90;;;;;;7332427;19;109752;-68
2022/11/30 07:02:43;;;;;;;;;;;8.40;99.90;;;;;;7331940;19;111659;-68
2022/11/30 07:05:10;;;;;;;;;;;8.40;99.90;;;;;;7332014;19;114044;-68
2022/11/30 07:07:37;;;;;;;;;;;8.40;99.90;;;;;;7334256;19;109268;-67
2022/11/30 07:10:04;;;;;;;;;;;8.40;99.90;;;;;;7335362;19;110662;-68
2022/11/30 07:12:34;;;;;;;;;;;8.40;99.90;;;;;;7336167;19;108727;-67
2022/11/30 07:15:01;;;;;;;;;;;8.40;99.90;;;;;;7338803;19;108654;-67
2022/11/30 07:17:27;;;;;;;;;;;8.40;99.90;;;;;;7334709;19;111054;-68
2022/11/30 07:19:54;;;;;;;;;;;8.40;99.90;;;;;;7340592;19;108965;-67
2022/11/30 07:22:21;;;;;;;;;;;8.40;99.90;;;;;;7333210;19;110027;-68
2022/11/30 07:27:34;;;;;;;;;;;8.40;99.90;;;;;;7335339;19;109287;-67
2022/11/30 07:30:01;;;;;;;;;;;8.40;99.90;;;;;;7333507;19;110158;-67
2022/11/30 07:32:27;;;;;;;;;;;8.40;99.90;;;;;;7333280;19;108863;-68
2022/11/30 07:34:54;;;;;;;;;;;8.40;99.90;;;;;;7335180;19;109582;-68
2022/11/30 07:37:21;;;;;;;;;;;8.40;99.90;;;;;;7333943;19;110333;-67
2022/11/30 07:39:48;;;;;;;;;;;8.40;99.90;;;;;;7347617;19;109132;-68
2022/11/30 07:42:16;;;;;;;;;;;8.40;99.90;;;;;;7342039;19;112998;-67
2022/11/30 07:44:43;;;;;;;;;;;8.40;99.90;;;;;;7344452;19;110439;-67
2022/11/30 07:47:10;;;;;;;;;;;8.40;99.90;;;;;;7339934;19;108534;-67
2022/11/30 07:49:38;;;;;;;;;;;8.40;99.90;;;;;;7342465;19;109310;-67
2022/11/30 07:52:05;;;;;;;;;;;8.40;99.90;;;;;;7342681;19;108773;-68
2022/11/30 07:54:32;;;;;;;;;;;8.40;99.90;;;;;;7343609;19;109463;-67
2022/11/30 07:56:59;;;;;;;;;;;8.40;99.90;;;;;;7337977;19;110657;-67
2022/11/30 07:59:26;;;;;;;;;;;8.40;99.90;;;;;;7338891;19;109558;-67
2022/11/30 08:01:53;;;;;;;;;;;8.40;99.90;;;;;;7343079;19;113066;-67
2022/11/30 08:04:20;;;;;;;;;;;8.40;99.90;;;;;;7338468;19;109523;-67
2022/11/30 08:06:47;;;;;;;;;;;8.40;99.90;;;;;;7338229;19;109134;-67
2022/11/30 08:09:13;;;;;;;;;;;8.40;99.90;;;;;;7335546;19;110166;-67
2022/11/30 08:11:47;;;;;;;;;;;8.40;99.90;;;;;;7340043;19;109008;-67
2022/11/30 08:14:14;;;;;;;;;;;8.40;99.90;;;;;;7342164;19;109297;-67
2022/11/30 08:16:42;;;;;;;;;;;8.40;99.90;;;;;;7340789;19;110383;-67
2022/11/30 08:19:09;;;;;;;;;;;8.40;99.90;;;;;;7342648;19;109105;-68
2022/11/30 08:21:37;;;;;;;;;;;8.40;99.90;;;;;;7342167;19;108766;-68
2022/11/30 08:24:04;;;;;;;;;;;8.40;99.90;;;;;;7346252;19;110695;-68
2022/11/30 08:26:32;;;;;;;;;;;8.40;99.90;;;;;;7341278;19;109408;-68
2022/11/30 08:29:00;;;;;;;;;;;8.50;99.90;;;;;;7341195;19;110240;-68
2022/11/30 08:31:28;;;;;;;;;;;8.40;99.90;;;;;;7338702;19;108891;-68
2022/11/30 08:33:57;;;;;;;;;;;8.50;99.90;;;;;;7341540;19;109401;-68
2022/11/30 08:36:24;;;;;;;;;;;8.50;99.90;;;;;;7339404;19;110137;-68
2022/11/30 08:38:51;;;;;;;;;;;8.50;99.90;;;;;;7341832;19;108863;-68
2022/11/30 08:41:20;;;;;;;;;;;8.50;99.90;;;;;;7340479;19;109110;-68
2022/11/30 08:43:47;;;;;;;;;;;8.50;99.90;;;;;;7341974;19;110249;-68
2022/11/30 08:46:15;;;;;;;;;;;8.50;99.90;;;;;;7338981;19;108621;-68
2022/11/30 08:49:02;;;;;;;;;;;8.60;99.90;;;;;;7335593;19;110828;-68
2022/11/30 08:51:50;;;;;;;;;;;8.60;99.90;;;;;;7336523;19;108551;-68
2022/11/30 08:54:38;;;;;;;;;;;8.60;99.90;;;;;;7336707;19;108667;-68
2022/11/30 08:57:05;;;;;;;;;;;8.60;99.90;;;;;;7333935;19;109128;-68
2022/11/30 08:59:32;;;;;;;;;;;8.70;99.90;;;;;;7337429;19;109116;-68
2022/11/30 09:01:59;;;;;;;;;;;8.70;99.90;;;;;;7339089;19;108885;-68
2022/11/30 09:04:26;;;;;;;;;;;8.70;99.90;;;;;;7338708;19;110586;-68
2022/11/30 09:06:57;;;;;;;;;;;8.70;99.90;;;;;;7340480;19;109376;-68
2022/11/30 09:09:25;;;;;;;;;;;8.70;99.90;;;;;;7343436;19;108581;-82
2022/11/30 09:11:52;;;;;;;;;;;8.70;99.90;;;;;;7338455;19;108790;-69
2022/11/30 09:14:19;;;;;;;;;;;8.70;99.90;;;;;;7338232;19;108538;-69
2022/11/30 09:16:46;;;;;;;;;;;8.80;99.90;;;;;;7340006;19;113063;-69
2022/11/30 09:19:13;;;;;;;;;;;8.80;99.90;;;;;;7338030;19;108634;-69
2022/11/30 09:21:40;;;;;;;;;;;8.80;99.90;;;;;;7339174;19;109001;-69
2022/11/30 09:24:15;;;;;;;;;;;8.80;99.90;;;;;;7337316;19;109085;-69
2022/11/30 09:26:42;;;;;;;;;;;8.90;99.90;;;;;;7339478;19;108924;-69
2022/11/30 09:29:09;;;;;;;;;;;8.90;99.90;;;;;;7344672;19;113102;-69
2022/11/30 09:31:35;;;;;;;;;;;8.90;99.90;;;;;;7337666;19;108637;-69
2022/11/30 09:34:02;;;;;;;;;;;9.00;99.90;;;;;;7339113;19;109370;-69
2022/11/30 09:36:29;;;;;;;;;;;9.00;99.90;;;;;;7336740;19;110259;-69
2022/11/30 09:38:56;;;;;;;;;;;9.10;99.90;;;;;;7337027;19;108915;-69
2022/11/30 09:41:29;;;;;;;;;;;9.10;99.90;;;;;;7338961;19;109103;-69
2022/11/30 09:43:56;;;;;;;;;;;9.10;99.90;;;;;;7337920;19;109144;-69
2022/11/30 09:46:27;;;;;;;;;;;9.20;99.90;;;;;;7338119;19;108440;-69
2022/11/30 09:49:00;;;;;;;;;;;9.20;99.90;;;;;;7338743;19;108935;-69
2022/11/30 09:51:46;;;;;;;;;;;9.10;99.90;;;;;;7343130;19;109147;-70
2022/11/30 09:54:34;;;;;;;;;;;9.10;99.90;;;;;;7338735;19;109366;-69
2022/11/30 09:57:19;;;;;;;;;;;9.00;99.90;;;;;;7337605;19;109225;-69
2022/11/30 09:59:50;;;;;;;;;;;9.10;99.90;;;;;;7336572;19;109051;-69
2022/11/30 10:02:17;;;;;;;;;;;9.10;99.90;;;;;;7334166;19;109240;-70
2022/11/30 10:04:45;;;;;;;;;;;9.20;99.90;;;;;;7335709;19;110327;-69
2022/11/30 10:07:12;;;;;;;;;;;9.20;99.90;;;;;;7338368;19;108682;-69
2022/11/30 10:09:39;;;;;;;;;;;9.20;99.90;;;;;;7338453;19;109344;-69
2022/11/30 10:12:06;;;;;;;;;;;9.30;99.90;;;;;;7335954;19;110576;-69
2022/11/30 10:14:51;;;;;;;;;;;9.30;99.90;;;;;;7343848;19;109331;-69
2022/11/30 10:17:41;;;;;;;;;;;9.40;99.90;;;;;;7336028;19;109649;-70
2022/11/30 10:20:27;;;;;;;;;;;9.30;99.90;;;;;;7338922;19;108308;-69
2022/11/30 10:23:01;;;;;;;;;;;9.30;99.90;;;;;;7333271;19;108625;-69
2022/11/30 10:25:34;;;;;;;;;;;9.30;99.90;;;;;;7331740;19;109365;-69
2022/11/30 10:28:04;;;;;;;;;;;9.30;99.90;;;;;;7332546;19;109142;-69
2022/11/30 10:30:51;;;;;;;;;;;9.20;99.90;;;;;;7337239;19;109702;-70
2022/11/30 10:33:19;;;;;;;;;;;9.20;99.90;;;;;;7336952;19;110027;-70
2022/11/30 10:35:48;;;;;;;;;;;9.20;99.90;;;;;;7337707;19;109642;-69
2022/11/30 10:38:27;;;;;;;;;;;9.20;99.90;;;;;;7339750;19;109389;-69
2022/11/30 10:41:10;;;;;;;;;;;9.30;99.90;;;;;;7339144;19;109160;-69
2022/11/30 10:43:42;;;;;;;;;;;9.30;99.90;;;;;;7337344;19;108607;-70
2022/11/30 10:46:24;;;;;;;;;;;9.40;99.90;;;;;;7336222;19;110290;-70
2022/11/30 10:49:11;;;;;;;;;;;9.40;99.90;;;;;;7338111;19;109423;-69
2022/11/30 10:51:41;;;;;;;;;;;9.40;99.90;;;;;;7337756;19;109144;-69
2022/11/30 10:54:13;;;;;;;;;;;9.40;99.90;;;;;;7336236;19;109729;-69
2022/11/30 10:56:40;;;;;;;;;;;9.40;99.90;;;;;;7338835;19;108631;-69
2022/11/30 10:59:17;;;;;;;;;;;9.40;99.90;;;;;;7335304;19;109363;-69
2022/11/30 11:01:44;;;;;;;;;;;9.40;99.90;;;;;;7343011;19;109848;-69
2022/11/30 11:04:11;;;;;;;;;;;9.40;99.90;;;;;;7335964;19;109203;-69
2022/11/30 11:06:42;;;;;;;;;;;9.40;99.90;;;;;;7340581;19;110345;-69
2022/11/30 11:09:22;;;;;;;;;;;9.40;99.90;;;;;;7334819;19;108592;-69
2022/11/30 11:11:54;;;;;;;;;;;9.40;99.90;;;;;;7335993;19;109239;-69
2022/11/30 11:14:25;;;;;;;;;;;9.50;99.90;;;;;;7343544;19;110340;-69
2022/11/30 11:16:52;;;;;;;;;;;9.50;99.90;;;;;;7343448;19;108709;-69
2022/11/30 11:19:37;;;;;;;;;;;9.60;99.90;;;;;;7342950;19;109140;-69
2022/11/30 11:22:17;;;;;;;;;;;9.60;99.90;;;;;;7343372;19;110331;-70
2022/11/30 11:24:47;;;;;;;;;;;9.60;99.90;;;;;;7351330;19;108278;-69
2022/11/30 11:27:23;;;;;;;;;;;9.70;99.90;;;;;;7345526;19;111072;-69
2022/11/30 11:29:58;;;;;;;;;;;9.70;99.90;;;;;;7343929;19;108690;-69
2022/11/30 11:32:25;;;;;;;;;;;9.80;99.90;;;;;;7342496;19;109873;-69
2022/11/30 11:34:52;;;;;;;;;;;9.80;99.90;;;;;;7342328;19;109834;-71
2022/11/30 11:37:21;;;;;;;;;;;9.90;99.90;;;;;;7340880;19;108667;-69
2022/11/30 11:39:53;;;;;;;;;;;9.90;99.90;;;;;;7343835;19;108490;-69
2022/11/30 11:42:20;;;;;;;;;;;10.00;99.90;;;;;;7342755;19;110420;-72
2022/11/30 11:44:52;;;;;;;;;;;10.00;99.90;;;;;;7349056;19;108550;-69
2022/11/30 11:47:24;;;;;;;;;;;10.00;99.90;;;;;;7341985;19;109807;-69
2022/11/30 11:49:51;;;;;;;;;;;10.00;99.90;;;;;;7345096;19;109163;-69
2022/11/30 11:52:18;;;;;;;;;;;10.10;99.90;;;;;;7342087;19;109200;-69
2022/11/30 11:55:04;;;;;;;;;;;10.10;99.90;;;;;;7342450;19;110313;-69
2022/11/30 11:57:40;;;;;;;;;;;10.20;99.90;;;;;;7343415;19;108912;-69
2022/11/30 12:00:18;;;;;;;;;;;10.30;99.90;;;;;;7343475;19;111134;-74
2022/11/30 12:02:51;;;;;;;;;;;10.40;99.90;;;;;;7342084;19;110288;-69
2022/11/30 12:05:28;;;;;;;;;;;10.30;99.90;;;;;;7341973;19;108603;-69
2022/11/30 12:08:05;;;;;;;;;;;10.30;99.90;;;;;;7346834;19;108282;-69
2022/11/30 12:10:35;;;;;;;;;;;10.20;99.90;;;;;;7343667;19;108856;-70
2022/11/30 12:13:21;;;;;;;;;;;10.30;99.90;;;;;;7341645;19;111170;-69
2022/11/30 12:15:54;;;;;;;;;;;10.40;99.90;;;;;;7340755;19;109395;-69
2022/11/30 12:18:25;;;;;;;;;;;10.50;99.90;;;;;;7344075;19;109151;-69
2022/11/30 12:20:59;;;;;;;;;;;10.60;99.90;;;;;;7344355;19;109563;-70
2022/11/30 12:23:32;;;;;;;;;;;10.60;99.90;;;;;;7341618;19;110345;-69
2022/11/30 12:26:08;;;;;;;;;;;10.50;99.90;;;;;;7344141;19;108288;-70
2022/11/30 12:28:54;;;;;;;;;;;10.50;99.90;;;;;;7342954;19;108821;-70
2022/11/30 12:31:22;;;;;;;;;;;10.50;99.90;;;;;;7347901;19;109252;-70
2022/11/30 12:34:03;;;;;;;;;;;10.60;99.90;;;;;;7342048;19;109172;-69
2022/11/30 12:36:29;;;;;;;;;;;10.60;99.90;;;;;;7339804;19;108871;-70
2022/11/30 12:39:01;;;;;;;;;;;10.70;99.90;;;;;;7342662;19;108414;-70
2022/11/30 12:41:27;;;;;;;;;;;10.70;99.90;;;;;;7340742;19;109029;-70
2022/11/30 12:44:13;;;;;;;;;;;10.80;99.90;;;;;;7344649;19;110679;-69
2022/11/30 12:47:00;;;;;;;;;;;10.90;99.90;;;;;;7341310;19;108763;-69
2022/11/30 12:49:34;;;;;;;;;;;11.10;99.90;;;;;;7340328;19;108271;-70
2022/11/30 12:52:17;;;;;;;;;;;11.20;99.90;;;;;;7340998;19;108983;-70
2022/11/30 12:55:02;;;;;;;;;;;11.30;99.90;;;;;;7345995;19;110143;-70
2022/11/30 12:57:33;;;;;;;;;;;11.30;99.90;;;;;;7339973;19;110357;-70
2022/11/30 13:00:17;;;;;;;;;;;11.30;99.90;;;;;;7342913;19;108987;-70
2022/11/30 13:02:56;;;;;;;;;;;11.30;99.90;;;;;;7340244;19;110858;-70
2022/11/30 13:05:29;;;;;;;;;;;11.40;99.90;;;;;;7337275;19;110266;-70
2022/11/30 13:07:56;;;;;;;;;;;11.50;99.90;;;;;;7340572;19;109061;-70
2022/11/30 13:10:35;;;;;;;;;;;11.50;99.90;;;;;;7339461;19;109074;-69
2022/11/30 13:13:03;;;;;;;;;;;11.50;99.90;;;;;;7339209;19;109224;-70
2022/11/30 13:15:32;;;;;;;;;;;11.50;99.90;;;;;;7340016;19;108481;-70
2022/11/30 13:18:01;;;;;;;;;;;11.50;99.90;;;;;;7346296;19;112437;-70
2022/11/30 13:20:34;;;;;;;;;;;11.40;99.90;;;;;;7340739;19;108387;-71
2022/11/30 13:23:27;;;;;;;;;;;11.40;99.90;;;;;;7339082;19;109237;-70
2022/11/30 13:26:01;;;;;;;;;;;11.40;99.90;;;;;;7340058;19;108855;-70
2022/11/30 13:28:42;;;;;;;;;;;11.30;99.90;;;;;;7339358;19;110185;-70
2022/11/30 13:31:14;;;;;;;;;;;11.30;99.90;;;;;;7339570;19;109292;-70
2022/11/30 13:33:48;;;;;;;;;;;11.30;99.90;;;;;;7339047;19;109101;-70
2022/11/30 13:36:21;;;;;;;;;;;11.30;99.90;;;;;;7340427;19;108654;-70
2022/11/30 13:39:26;;;;;;;;;;;11.20;99.90;;;;;;7339304;19;108333;-70
2022/11/30 13:41:59;;;;;;;;;;;11.20;99.90;;;;;;7340438;19;110460;-70
2022/11/30 13:44:31;;;;;;;;;;;11.20;99.90;;;;;;7333574;19;108981;-71
2022/11/30 13:46:59;;;;;;;;;;;11.20;99.90;;;;;;7333924;19;110540;-70
2022/11/30 13:49:34;;;;;;;;;;;11.10;99.90;;;;;;7334768;19;109640;-72
2022/11/30 13:52:02;;;;;;;;;;;11.10;99.90;;;;;;7336394;19;110792;-70
2022/11/30 13:54:52;;;;;;;;;;;11.10;99.90;;;;;;7333684;19;110287;-70
2022/11/30 13:57:22;;;;;;;;;;;11.10;99.90;;;;;;7327919;19;110140;-70
2022/11/30 13:59:52;;;;;;;;;;;11.10;99.90;;;;;;7334057;19;109379;-70
2022/11/30 14:02:45;;;;;;;;;;;11.10;99.90;;;;;;7339384;19;109533;-70
2022/11/30 14:05:15;;;;;;;;;;;11.20;99.90;;;;;;7333421;19;109072;-70
2022/11/30 14:08:05;;;;;;;;;;;11.30;99.90;;;;;;7334934;19;110043;-76
2022/11/30 14:10:32;;;;;;;;;;;11.30;99.90;;;;;;7334754;19;109425;-72
2022/11/30 14:13:01;;;;;;;;;;;11.40;99.90;;;;;;7334296;19;108818;-75
2022/11/30 14:15:37;;;;;;;;;;;11.40;99.90;;;;;;7333635;19;108957;-77
2022/11/30 14:18:07;;;;;;;;;;;11.40;99.90;;;;;;7339372;19;108900;-75
2022/11/30 14:20:37;;;;;;;;;;;11.40;99.90;;;;;;7338009;19;109640;-74
2022/11/30 14:23:25;;;;;;;;;;;11.40;99.90;;;;;;7337528;19;109530;-80
2022/11/30 14:25:54;;;;;;;;;;;11.30;99.90;;;;;;7343517;19;108412;-78
2022/11/30 14:28:23;;;;;;;;;;;11.30;99.90;;;;;;7336290;19;109287;-75
2022/11/30 14:30:50;;;;;;;;;;;11.20;99.90;;;;;;7337252;19;108759;-70
2022/11/30 14:33:18;;;;;;;;;;;11.20;99.90;;;;;;7335400;19;110358;-70